createdAt,value
2018-05-02T00:00:18.285Z,8.30
2018-05-02T00:02:46.456Z,8.30
2018-05-02T00:05:14.650Z,8.20
2018-05-02T00:07:42.809Z,8.20
2018-05-02T00:10:11.015Z,8.20
2018-05-02T00:12:39.194Z,8.20
2018-05-02T00:15:07.353Z,8.20
2018-05-02T00:17:35.727Z,8.10
2018-05-02T00:20:03.878Z,8.00
2018-05-02T00:22:32.004Z,8.00
2018-05-02T00:25:00.125Z,8.00
2018-05-02T00:27:28.330Z,8.00
2018-05-02T00:29:57.606Z,8.00
2018-05-02T00:32:25.762Z,7.90
2018-05-02T00:34:53.921Z,7.90
2018-05-02T00:37:22.081Z,7.90
2018-05-02T00:39:50.994Z,8.00
2018-05-02T00:42:19.148Z,8.00
2018-05-02T00:44:48.829Z,8.00
2018-05-02T00:47:17.016Z,8.00
2018-05-02T00:49:45.920Z,8.10
2018-05-02T00:52:14.829Z,8.00
2018-05-02T00:54:42.982Z,8.00
2018-05-02T00:57:11.926Z,7.90
2018-05-02T00:59:40.100Z,7.90
2018-05-02T01:02:08.244Z,7.90
2018-05-02T01:04:36.410Z,7.90
2018-05-02T01:07:04.594Z,7.90
2018-05-02T01:09:32.715Z,7.90
2018-05-02T01:12:00.836Z,7.90
2018-05-02T01:14:29.030Z,7.80
2018-05-02T01:16:57.190Z,7.80
2018-05-02T01:19:25.305Z,7.70
2018-05-02T01:21:53.472Z,7.70
2018-05-02T01:24:21.605Z,7.70
2018-05-02T01:26:49.749Z,7.70
2018-05-02T01:29:18.663Z,7.70
2018-05-02T01:31:46.929Z,7.60
2018-05-02T01:34:15.086Z,7.70
2018-05-02T01:36:48.405Z,7.60
2018-05-02T01:39:16.670Z,7.60
2018-05-02T01:41:44.800Z,7.60
2018-05-02T01:44:12.921Z,7.60
2018-05-02T01:46:41.094Z,7.50
2018-05-02T01:49:24.247Z,7.50
2018-05-02T01:51:52.413Z,7.50
2018-05-02T01:54:20.572Z,7.40
2018-05-02T01:56:48.724Z,7.40
2018-05-02T01:59:17.362Z,7.40
2018-05-02T02:01:45.511Z,7.40
2018-05-02T02:04:13.686Z,7.40
2018-05-02T02:06:41.847Z,7.40
2018-05-02T02:09:10.002Z,7.40
2018-05-02T02:11:38.405Z,7.40
2018-05-02T02:14:06.536Z,7.30
2018-05-02T02:16:35.420Z,7.30
2018-05-02T02:19:04.329Z,7.30
2018-05-02T02:21:32.481Z,7.30
2018-05-02T02:24:01.395Z,7.20
2018-05-02T02:26:29.552Z,7.20
2018-05-02T02:28:58.437Z,7.20
2018-05-02T02:31:27.312Z,7.20
2018-05-02T02:33:55.667Z,7.20
2018-05-02T02:36:23.901Z,7.20
2018-05-02T02:38:52.024Z,7.20
2018-05-02T02:41:20.281Z,7.20
2018-05-02T02:43:48.430Z,7.20
2018-05-02T02:46:16.577Z,7.10
2018-05-02T02:48:45.491Z,7.10
2018-05-02T02:51:13.618Z,7.10
2018-05-02T02:53:42.559Z,7.10
2018-05-02T02:56:10.692Z,7.10
2018-05-02T02:58:39.593Z,7.10
2018-05-02T03:01:08.549Z,7.10
2018-05-02T03:03:36.681Z,7.00
2018-05-02T03:06:04.872Z,7.00
2018-05-02T03:08:33.113Z,7.00
2018-05-02T03:11:01.272Z,7.00
2018-05-02T03:13:30.157Z,6.90
2018-05-02T03:15:58.380Z,6.90
2018-05-02T03:18:26.525Z,6.90
2018-05-02T03:20:54.728Z,6.90
2018-05-02T03:23:22.901Z,6.90
2018-05-02T03:25:51.050Z,6.90
2018-05-02T03:28:19.205Z,6.90
2018-05-02T03:30:47.340Z,6.90
2018-05-02T03:33:15.501Z,6.90
2018-05-02T03:35:43.669Z,6.90
2018-05-02T03:38:11.828Z,6.90
2018-05-02T03:40:39.956Z,6.90
2018-05-02T03:43:08.873Z,7.00
2018-05-02T03:45:37.017Z,7.00
2018-05-02T03:48:05.925Z,7.10
2018-05-02T03:50:34.141Z,7.00
2018-05-02T03:53:02.328Z,7.10
2018-05-02T03:55:30.534Z,7.20
2018-05-02T03:57:58.758Z,7.20
2018-05-02T04:00:44.783Z,7.30
2018-05-02T04:03:30.902Z,7.40
2018-05-02T04:09:04.424Z,7.50
2018-05-02T04:11:32.630Z,7.60
2018-05-02T04:14:00.760Z,7.70
2018-05-02T04:16:28.940Z,7.80
2018-05-02T04:18:57.130Z,7.80
2018-05-02T04:21:25.282Z,7.90
2018-05-02T04:23:53.440Z,8.00
2018-05-02T04:26:22.386Z,8.30
2018-05-02T04:28:50.524Z,8.30
2018-05-02T04:31:18.642Z,8.40
2018-05-02T04:33:46.809Z,8.50
2018-05-02T04:36:14.944Z,8.60
2018-05-02T04:38:43.135Z,8.60
2018-05-02T04:41:11.345Z,8.70
2018-05-02T04:46:40.122Z,8.80
2018-05-02T04:49:08.269Z,8.70
2018-05-02T04:51:36.445Z,8.80
2018-05-02T04:54:04.561Z,8.80
2018-05-02T04:56:32.697Z,8.80
2018-05-02T04:59:00.839Z,8.80
2018-05-02T05:01:29.748Z,9.00
2018-05-02T05:03:57.869Z,8.90
2018-05-02T05:06:25.994Z,9.10
2018-05-02T05:08:54.216Z,9.20
2018-05-02T05:11:22.333Z,9.30
2018-05-02T05:13:51.241Z,9.60
2018-05-02T05:16:19.365Z,9.60
2018-05-02T05:18:47.494Z,9.70
2018-05-02T05:21:15.658Z,9.90
2018-05-02T05:23:43.839Z,10.10
2018-05-02T05:26:12.004Z,10.30
2018-05-02T05:28:40.132Z,10.50
2018-05-02T05:31:08.273Z,10.80
2018-05-02T05:33:36.423Z,11.00
2018-05-02T05:36:04.602Z,11.30
2018-05-02T05:38:32.729Z,11.60
2018-05-02T05:41:00.865Z,11.80
2018-05-02T05:43:29.036Z,12.10
2018-05-02T05:45:57.188Z,12.30
2018-05-02T05:48:25.308Z,12.50
2018-05-02T05:50:53.452Z,12.80
2018-05-02T05:53:21.611Z,13.00
2018-05-02T05:55:49.741Z,13.20
2018-05-02T05:58:18.653Z,13.50
2018-05-02T06:00:46.846Z,13.50
2018-05-02T06:03:15.034Z,13.70
2018-05-02T06:05:43.164Z,13.80
2018-05-02T06:08:12.088Z,14.20
2018-05-02T06:10:40.269Z,14.20
2018-05-02T06:13:08.443Z,14.30
2018-05-02T06:15:36.592Z,14.30
2018-05-02T06:18:04.785Z,14.40
2018-05-02T06:20:32.938Z,14.50
2018-05-02T06:23:01.067Z,14.60
2018-05-02T06:25:29.204Z,14.60
2018-05-02T06:27:57.354Z,14.70
2018-05-02T06:30:25.551Z,14.60
2018-05-02T06:32:53.673Z,14.70
2018-05-02T06:35:22.560Z,15.10
2018-05-02T06:37:51.580Z,15.30
2018-05-02T06:40:19.612Z,15.20
2018-05-02T06:42:47.744Z,15.30
2018-05-02T06:45:15.889Z,15.40
2018-05-02T06:47:44.070Z,15.50
2018-05-02T06:50:12.291Z,15.60
2018-05-02T06:52:40.353Z,15.60
2018-05-02T06:55:08.514Z,15.70
2018-05-02T06:57:36.662Z,15.90
2018-05-02T07:00:04.789Z,16.10
2018-05-02T07:02:32.964Z,16.10
2018-05-02T07:05:01.922Z,16.50
2018-05-02T07:07:30.075Z,16.50
2018-05-02T07:09:58.199Z,16.60
2018-05-02T07:12:26.375Z,16.60
2018-05-02T07:14:55.303Z,16.90
2018-05-02T07:17:23.445Z,16.90
2018-05-02T07:19:52.356Z,16.70
2018-05-02T07:22:20.497Z,16.70
2018-05-02T07:24:48.624Z,16.60
2018-05-02T07:27:16.749Z,16.70
2018-05-02T07:29:45.705Z,16.90
2018-05-02T07:32:13.823Z,16.90
2018-05-02T07:34:42.745Z,17.40
2018-05-02T07:37:10.911Z,17.40
2018-05-02T07:39:39.033Z,17.50
2018-05-02T07:42:07.167Z,17.60
2018-05-02T07:44:35.334Z,17.80
2018-05-02T07:47:03.458Z,17.70
2018-05-02T07:49:31.620Z,17.90
2018-05-02T07:51:59.731Z,17.90
2018-05-02T07:54:27.854Z,18.10
2018-05-02T07:56:56.022Z,18.10
2018-05-02T07:59:24.173Z,18.30
2018-05-02T08:01:52.342Z,18.50
2018-05-02T08:04:20.501Z,18.80
2018-05-02T08:06:48.640Z,19.10
2018-05-02T08:09:16.764Z,19.40
2018-05-02T08:11:44.905Z,19.60
2018-05-02T08:14:13.041Z,19.70
2018-05-02T08:16:41.196Z,20.10
2018-05-02T08:19:09.375Z,20.30
2018-05-02T08:21:37.530Z,20.50
2018-05-02T08:24:05.686Z,20.70
2018-05-02T08:26:33.840Z,20.80
2018-05-02T08:29:02.014Z,21.00
2018-05-02T08:31:30.143Z,21.20
2018-05-02T08:33:58.294Z,21.20
2018-05-02T08:36:26.416Z,21.20
2018-05-02T08:38:55.382Z,21.20
2018-05-02T08:41:23.679Z,21.10
2018-05-02T08:43:52.602Z,20.00
2018-05-02T08:46:20.724Z,19.90
2018-05-02T08:48:48.918Z,19.90
2018-05-02T08:51:17.804Z,20.00
2018-05-02T08:53:46.763Z,20.00
2018-05-02T08:56:14.943Z,19.90
2018-05-02T08:58:43.075Z,19.60
2018-05-02T09:01:11.233Z,19.70
2018-05-02T09:03:39.463Z,19.70
2018-05-02T09:06:07.553Z,19.50
2018-05-02T09:08:36.460Z,19.20
2018-05-02T09:11:05.357Z,18.90
2018-05-02T09:13:33.512Z,18.90
2018-05-02T09:16:02.398Z,18.80
2018-05-02T09:18:31.329Z,18.70
2018-05-02T09:20:59.470Z,18.60
2018-05-02T09:23:28.368Z,18.50
2018-05-02T09:25:56.554Z,18.50
2018-05-02T09:28:24.694Z,18.20
2018-05-02T09:30:53.638Z,18.10
2018-05-02T09:33:21.780Z,18.10
2018-05-02T09:35:49.930Z,17.80
2018-05-02T09:38:18.870Z,17.80
2018-05-02T09:40:47.017Z,17.80
2018-05-02T09:43:15.206Z,17.80
2018-05-02T09:45:43.378Z,17.70
2018-05-02T09:48:11.530Z,17.70
2018-05-02T09:50:39.676Z,17.80
2018-05-02T09:53:07.801Z,18.00
2018-05-02T09:55:35.939Z,18.20
2018-05-02T09:58:04.098Z,18.30
2018-05-02T10:00:33.036Z,18.70
2018-05-02T10:03:01.148Z,18.70
2018-05-02T10:05:29.297Z,18.80
2018-05-02T10:07:57.440Z,19.00
2018-05-02T10:10:25.564Z,19.10
2018-05-02T10:12:53.733Z,19.20
2018-05-02T10:15:21.856Z,19.30
2018-05-02T10:17:50.029Z,19.50
2018-05-02T10:20:18.148Z,19.60
2018-05-02T10:22:46.307Z,19.80
2018-05-02T10:25:14.449Z,19.90
2018-05-02T10:27:42.568Z,19.90
2018-05-02T10:30:10.705Z,20.00
2018-05-02T10:32:38.856Z,20.10
2018-05-02T10:35:07.029Z,20.10
2018-05-02T10:37:35.217Z,20.20
2018-05-02T10:40:03.402Z,20.20
2018-05-02T10:42:31.541Z,20.20
2018-05-02T10:44:59.688Z,20.40
2018-05-02T10:47:27.807Z,20.10
2018-05-02T10:54:24.894Z,20.10
2018-05-02T10:56:53.056Z,20.10
2018-05-02T10:59:21.270Z,20.20
2018-05-02T11:01:49.427Z,20.30
2018-05-02T11:04:17.587Z,20.50
2018-05-02T11:06:45.781Z,20.50
2018-05-02T11:09:14.011Z,20.60
2018-05-02T11:11:42.184Z,20.70
2018-05-02T11:14:10.381Z,20.70
2018-05-02T11:16:38.551Z,20.60
2018-05-02T11:19:06.718Z,20.60
2018-05-02T11:21:34.901Z,20.80
2018-05-02T11:24:03.060Z,20.90
2018-05-02T11:26:31.219Z,20.80
2018-05-02T11:28:59.394Z,20.90
2018-05-02T11:31:27.555Z,20.70
2018-05-02T11:33:55.727Z,20.70
2018-05-02T11:36:23.905Z,20.30
2018-05-02T11:38:52.062Z,20.20
2018-05-02T11:41:20.994Z,20.10
2018-05-02T11:43:49.223Z,20.10
2018-05-02T11:46:17.466Z,20.00
2018-05-02T11:48:45.591Z,19.90
2018-05-02T11:51:13.755Z,19.80
2018-05-02T11:53:41.934Z,19.80
2018-05-02T11:56:10.095Z,19.80
2018-05-02T11:58:38.283Z,19.80
2018-05-02T12:01:06.446Z,19.70
2018-05-02T12:03:34.719Z,19.70
2018-05-02T12:06:02.842Z,19.60
2018-05-02T12:08:30.995Z,19.40
2018-05-02T12:10:59.166Z,19.40
2018-05-02T12:13:27.345Z,19.30
2018-05-02T12:15:55.503Z,19.30
2018-05-02T12:18:23.663Z,19.30
2018-05-02T12:20:51.834Z,19.30
2018-05-02T12:23:20.001Z,19.20
2018-05-02T12:25:48.210Z,19.10
2018-05-02T12:28:16.367Z,19.00
2018-05-02T12:30:44.570Z,18.90
2018-05-02T12:33:12.753Z,18.70
2018-05-02T12:35:40.906Z,18.60
2018-05-02T12:38:09.204Z,18.60
2018-05-02T12:40:37.374Z,18.50
2018-05-02T12:43:05.579Z,18.50
2018-05-02T12:45:34.503Z,18.60
2018-05-02T12:48:02.675Z,18.60
2018-05-02T12:50:30.883Z,18.80
2018-05-02T12:52:59.044Z,18.90
2018-05-02T12:55:27.207Z,19.00
2018-05-02T12:57:55.394Z,18.90
2018-05-02T13:00:23.618Z,19.00
2018-05-02T13:02:51.774Z,19.20
2018-05-02T13:05:20.709Z,19.70
2018-05-02T13:07:48.897Z,19.70
2018-05-02T13:10:17.056Z,20.20
2018-05-02T13:12:45.219Z,20.60
2018-05-02T13:15:13.415Z,21.10
2018-05-02T13:17:41.582Z,21.50
2018-05-02T13:20:09.734Z,21.90
2018-05-02T13:22:37.918Z,22.50
2018-05-02T13:25:06.809Z,23.20
2018-05-02T13:27:34.966Z,23.60
2018-05-02T13:30:03.162Z,24.00
2018-05-02T13:32:31.326Z,24.70
2018-05-02T13:34:59.499Z,25.70
2018-05-02T13:37:27.681Z,27.20
2018-05-02T13:39:55.839Z,27.70
2018-05-02T13:42:23.995Z,27.20
2018-05-02T13:44:52.162Z,27.10
2018-05-02T13:47:20.314Z,27.20
2018-05-02T13:49:49.259Z,27.20
2018-05-02T13:52:17.442Z,27.20
2018-05-02T13:54:45.595Z,27.20
2018-05-02T13:57:13.782Z,27.20
2018-05-02T13:59:41.943Z,27.30
2018-05-02T14:02:10.099Z,27.90
2018-05-02T14:04:38.263Z,28.60
2018-05-02T14:07:06.418Z,29.50
2018-05-02T14:09:35.372Z,30.30
2018-05-02T14:12:03.480Z,30.20
2018-05-02T14:14:32.407Z,30.60
2018-05-02T14:17:00.548Z,30.50
2018-05-02T14:19:29.438Z,31.60
2018-05-02T14:21:58.324Z,33.20
2018-05-02T14:24:27.221Z,34.00
2018-05-02T14:26:56.111Z,35.00
2018-05-02T14:29:25.025Z,35.20
2018-05-02T14:31:53.186Z,35.10
2018-05-02T14:34:21.325Z,34.70
2018-05-02T14:36:49.436Z,34.90
2018-05-02T14:39:17.554Z,34.40
2018-05-02T14:41:45.695Z,33.70
2018-05-02T14:44:13.826Z,33.30
2018-05-02T14:46:42.705Z,33.10
2018-05-02T14:49:10.842Z,33.10
2018-05-02T14:51:39.010Z,32.90
2018-05-02T14:54:07.128Z,32.40
2018-05-02T14:56:35.290Z,31.60
2018-05-02T14:59:03.444Z,30.70
2018-05-02T15:01:31.637Z,29.50
2018-05-02T15:03:59.715Z,28.70
2018-05-02T15:06:28.628Z,27.30
2018-05-02T15:08:56.783Z,27.20
2018-05-02T15:11:25.681Z,26.40
2018-05-02T15:13:54.604Z,25.50
2018-05-02T15:16:22.775Z,25.50
2018-05-02T15:18:50.893Z,25.20
2018-05-02T15:21:19.009Z,24.70
2018-05-02T15:23:47.151Z,24.40
2018-05-02T15:26:16.029Z,23.80
2018-05-02T15:28:44.173Z,23.80
2018-05-02T15:31:12.435Z,23.60
2018-05-02T15:33:40.562Z,23.90
2018-05-02T15:36:09.458Z,25.00
2018-05-02T15:38:38.407Z,25.00
2018-05-02T15:41:06.539Z,24.90
2018-05-02T15:43:34.699Z,24.80
2018-05-02T15:46:02.870Z,24.80
2018-05-02T15:48:31.075Z,24.80
2018-05-02T15:50:59.207Z,24.70
2018-05-02T15:53:28.100Z,24.20
2018-05-02T15:55:57.025Z,23.50
2018-05-02T15:58:25.167Z,23.50
2018-05-02T16:00:54.058Z,22.80
2018-05-02T16:03:22.209Z,22.70
2018-05-02T16:05:50.366Z,22.50
2018-05-02T16:08:18.502Z,22.10
2018-05-02T16:10:46.632Z,21.80
2018-05-02T16:13:14.780Z,21.40
2018-05-02T16:15:42.892Z,21.30
2018-05-02T16:18:11.810Z,20.80
2018-05-02T16:20:40.008Z,20.70
2018-05-02T16:23:08.132Z,20.50
2018-05-02T16:25:37.013Z,20.20
2018-05-02T16:28:05.940Z,19.90
2018-05-02T16:30:34.139Z,19.90
2018-05-02T16:33:02.985Z,19.60
2018-05-02T16:35:31.136Z,19.60
2018-05-02T16:38:00.033Z,19.40
2018-05-02T16:40:28.922Z,19.30
2018-05-02T16:42:57.853Z,19.10
2018-05-02T16:45:26.022Z,19.10
2018-05-02T16:47:54.186Z,19.00
2018-05-02T16:50:22.333Z,19.00
2018-05-02T16:52:50.489Z,18.80
2018-05-02T16:55:19.402Z,18.60
2018-05-02T16:57:47.530Z,18.60
2018-05-02T17:00:15.668Z,18.60
2018-05-02T17:02:43.783Z,18.50
2018-05-02T17:05:11.906Z,18.30
2018-05-02T17:07:40.283Z,18.30
2018-05-02T17:10:08.333Z,18.30
2018-05-02T17:12:36.490Z,18.20
2018-05-02T17:15:05.408Z,18.00
2018-05-02T17:17:33.557Z,17.90
2018-05-02T17:20:02.448Z,17.90
2018-05-02T17:22:31.361Z,17.80
2018-05-02T17:24:59.506Z,17.80
2018-05-02T17:27:28.434Z,17.60
2018-05-02T17:29:56.576Z,17.60
2018-05-02T17:32:25.490Z,17.40
2018-05-02T17:34:53.612Z,17.40
2018-05-02T17:37:21.767Z,17.40
2018-05-02T17:39:49.926Z,17.40
2018-05-02T17:42:18.105Z,17.30
2018-05-02T17:44:46.302Z,17.30
2018-05-02T17:47:14.466Z,17.30
2018-05-02T17:49:42.585Z,17.20
2018-05-02T17:52:10.697Z,17.20
2018-05-02T17:54:38.819Z,17.10
2018-05-02T17:57:07.738Z,17.10
2018-05-02T17:59:35.872Z,17.10
2018-05-02T18:02:04.781Z,17.00
2018-05-02T18:04:32.945Z,17.00
2018-05-02T18:07:01.061Z,17.00
2018-05-02T18:09:29.210Z,16.90
2018-05-02T18:11:57.364Z,16.90
2018-05-02T18:14:25.484Z,16.80
2018-05-02T18:16:53.626Z,16.80
2018-05-02T18:19:21.744Z,16.70
2018-05-02T18:21:49.902Z,16.70
2018-05-02T18:24:18.082Z,16.70
2018-05-02T18:26:46.237Z,16.60
2018-05-02T18:29:14.397Z,16.60
2018-05-02T18:31:42.590Z,16.60
2018-05-02T18:34:10.725Z,16.50
2018-05-02T18:36:38.853Z,16.50
2018-05-02T18:39:06.990Z,16.40
2018-05-02T18:41:35.168Z,16.30
2018-05-02T18:44:03.295Z,16.30
2018-05-02T18:46:32.186Z,16.20
2018-05-02T18:49:01.107Z,16.20
2018-05-02T18:51:29.233Z,16.20
2018-05-02T18:53:57.353Z,16.10
2018-05-02T18:56:25.533Z,16.00
2018-05-02T18:58:53.675Z,16.00
2018-05-02T19:01:21.869Z,15.80
2018-05-02T19:03:50.019Z,15.80
2018-05-02T19:06:18.179Z,15.70
2018-05-02T19:08:47.161Z,15.50
2018-05-02T19:11:16.102Z,15.40
2018-05-02T19:13:49.841Z,15.40
2018-05-02T19:16:18.035Z,15.40
2018-05-02T19:18:52.664Z,15.20
2018-05-02T19:21:21.605Z,15.20
2018-05-02T19:23:49.813Z,15.20
2018-05-02T19:26:23.590Z,15.20
2018-05-02T19:28:51.758Z,15.20
2018-05-02T19:34:23.103Z,15.20
2018-05-02T19:36:51.287Z,15.20
2018-05-02T19:39:19.423Z,15.30
2018-05-02T19:44:52.484Z,15.20
2018-05-02T19:47:20.646Z,15.30
2018-05-02T19:49:48.811Z,15.30
2018-05-02T19:55:18.247Z,15.30
2018-05-02T19:57:46.421Z,15.30
2018-05-02T20:00:20.092Z,15.40
2018-05-02T20:02:53.922Z,15.40
2018-05-02T20:05:22.080Z,15.30
2018-05-02T20:07:50.248Z,15.40
2018-05-02T20:10:24.103Z,15.30
2018-05-02T20:12:57.899Z,15.30
2018-05-02T20:15:26.054Z,15.30
2018-05-02T20:17:54.214Z,15.20
2018-05-02T20:20:22.358Z,15.20
2018-05-02T20:22:50.555Z,15.20
2018-05-02T20:25:18.767Z,15.20
2018-05-02T20:27:46.872Z,15.30
2018-05-02T20:30:15.031Z,15.30
2018-05-02T20:32:43.956Z,15.20
2018-05-02T20:35:12.087Z,15.20
2018-05-02T20:37:40.266Z,15.20
2018-05-02T20:40:09.161Z,15.10
2018-05-02T20:42:38.093Z,15.10
2018-05-02T20:45:06.261Z,15.10
2018-05-02T20:47:34.380Z,15.00
2018-05-02T20:50:02.505Z,15.00
2018-05-02T20:52:30.711Z,15.00
2018-05-02T20:54:58.896Z,14.90
2018-05-02T20:57:26.978Z,14.90
2018-05-02T20:59:55.141Z,14.90
2018-05-02T21:02:23.286Z,14.90
2018-05-02T21:04:51.409Z,14.90
2018-05-02T21:07:20.323Z,14.80
2018-05-02T21:09:48.436Z,14.80
2018-05-02T21:12:16.557Z,14.80
2018-05-02T21:14:44.735Z,14.80
2018-05-02T21:17:12.876Z,14.80
2018-05-02T21:19:41.761Z,14.70
2018-05-02T21:22:10.690Z,14.60
2018-05-02T21:24:38.845Z,14.60
2018-05-02T21:27:06.988Z,14.60
2018-05-02T21:29:35.134Z,14.60
2018-05-02T21:32:03.302Z,14.70
2018-05-02T21:34:31.481Z,14.70
2018-05-02T21:36:59.606Z,14.50
2018-05-02T21:39:27.770Z,14.60
2018-05-02T21:41:55.908Z,14.70
2018-05-02T21:44:24.062Z,14.70
2018-05-02T21:46:52.217Z,14.70
2018-05-02T21:49:20.342Z,14.70
2018-05-02T21:51:48.492Z,14.70
2018-05-02T21:54:16.718Z,14.80
2018-05-02T21:56:44.838Z,14.80
2018-05-02T21:59:12.989Z,14.80
2018-05-02T22:01:41.163Z,14.90
2018-05-02T22:04:09.308Z,14.90
2018-05-02T22:06:37.440Z,14.90
2018-05-02T22:09:05.606Z,14.90
2018-05-02T22:11:33.732Z,14.90
2018-05-02T22:14:01.908Z,14.90
2018-05-02T22:16:30.035Z,14.90
2018-05-02T22:18:58.148Z,14.90
2018-05-02T22:21:26.300Z,14.80
2018-05-02T22:23:55.238Z,14.70
2018-05-02T22:26:23.390Z,14.70
2018-05-02T22:28:51.586Z,14.70
2018-05-02T22:31:19.721Z,14.60
2018-05-02T22:33:47.837Z,14.60
2018-05-02T22:36:15.986Z,14.60
2018-05-02T22:38:44.110Z,14.50
2018-05-02T22:41:13.025Z,14.60
2018-05-02T22:43:41.172Z,14.60
2018-05-02T22:46:10.103Z,14.70
2018-05-02T22:48:38.347Z,14.60
2018-05-02T22:51:06.464Z,14.60
2018-05-02T22:53:34.583Z,14.60
2018-05-02T22:56:02.732Z,14.60
2018-05-02T22:58:30.883Z,14.60
2018-05-02T23:00:59.042Z,14.70
2018-05-02T23:03:27.210Z,14.60
2018-05-02T23:05:55.389Z,14.70
2018-05-02T23:08:23.537Z,14.70
2018-05-02T23:10:51.689Z,14.80
2018-05-02T23:13:20.600Z,14.80
2018-05-02T23:15:48.750Z,14.70
2018-05-02T23:18:17.659Z,14.80
2018-05-02T23:20:46.573Z,14.80
2018-05-02T23:23:14.698Z,14.70
2018-05-02T23:25:42.846Z,14.70
2018-05-02T23:28:10.996Z,14.60
2018-05-02T23:30:39.201Z,14.60
2018-05-02T23:33:07.325Z,14.60
2018-05-02T23:35:35.505Z,14.60
2018-05-02T23:38:03.632Z,14.60
2018-05-02T23:40:32.540Z,14.70
2018-05-02T23:43:01.482Z,14.70
2018-05-02T23:45:29.739Z,14.70
2018-05-02T23:47:57.869Z,14.70
2018-05-02T23:50:26.801Z,14.70
2018-05-02T23:52:54.932Z,14.70
2018-05-02T23:55:23.813Z,14.70
2018-05-02T23:57:51.948Z,14.70
